Skip Navigation LinksHome page > Weather > Current weather Skip Navigation Links

Current Weather

Chicago O'Hare Intl, Chicago

For information only: do not use for flight planning or navigation.
Latest weather
Observation time Saturday, August 29, 2015 8:51 AM CDT
Local time Saturday, August 29, 2015 9:34 AM CDT
Flight conditions Visual Meteorological Conditions
Winds
Wind direction Northeast (40°)
Wind speed 9 mph
Visibility 5 mi.
Present weather rain, mist
Sky condition
Ceiling 4,800 ft. broken clouds
Cloud layer broken clouds 4,800 ft.
Cloud layer overcast 7,500 ft.
Temperature 64°F
Dewpoint 63°F
Altimeter 30.05 in.Hg
Precipitation
Rain ended 8:06 AM
Rain began 8:36 AM
Precipitation last hour 0.02 in.
Derived measurements
Relative humidity 96%
Density altitude 1118 ft.
Sea-level pressure 30.04 in.Hg
Remarks
Automated weather observing station with precipitation discriminator.
METAR KORD 291351Z 04008KT 5SM RA BR BKN048 OVC075 18/17 A3005 RMK AO2 RAE06B36 SLP174 P0002 T01780172

Settings

Location code

InnerDrive.Weather 4.0.5567.0 Release CLR 4.0.30319.34014
Copyright ©2015 Inner Drive Technology. All rights reserved. Portions Copyright ©1986-2015 David Braverman.

Find weather

Site navigation


Skip Navigation Links

Place info

Page info

PayPal - The safer, easier way to pay online!

Return home.

Copyright ©2015 Inner Drive Technology. Purveyors of fine, hand-crafted computer software. Page printed 2015-08-29T14:34:46 UTC.